sensor_id;sensor_type;location;lat;lon;timestamp;pressure;altitude;pressure_sealevel;temperature;humidity
7157;BME280;3620;49.862;8.758;2022-12-15T00:02:18;98136.59;;;-2.16;100.00
7157;BME280;3620;49.862;8.758;2022-12-15T00:05:02;98134.31;;;-2.39;100.00
7157;BME280;3620;49.862;8.758;2022-12-15T00:07:46;98136.00;;;-2.38;100.00
7157;BME280;3620;49.862;8.758;2022-12-15T00:10:30;98138.75;;;-2.53;100.00
7157;BME280;3620;49.862;8.758;2022-12-15T00:13:14;98136.16;;;-2.53;100.00
7157;BME280;3620;49.862;8.758;2022-12-15T00:15:58;98131.91;;;-2.55;100.00
7157;BME280;3620;49.862;8.758;2022-12-15T00:18:43;98130.50;;;-2.80;100.00
7157;BME280;3620;49.862;8.758;2022-12-15T00:21:27;98141.78;;;-2.95;100.00
7157;BME280;3620;49.862;8.758;2022-12-15T00:24:11;98144.38;;;-3.00;100.00
7157;BME280;3620;49.862;8.758;2022-12-15T00:26:55;98133.06;;;-2.80;100.00
7157;BME280;3620;49.862;8.758;2022-12-15T00:29:39;98137.13;;;-2.61;100.00
7157;BME280;3620;49.862;8.758;2022-12-15T00:32:23;98142.00;;;-2.37;100.00
7157;BME280;3620;49.862;8.758;2022-12-15T00:35:09;98145.25;;;-2.20;100.00
7157;BME280;3620;49.862;8.758;2022-12-15T00:37:54;98158.13;;;-2.22;100.00
7157;BME280;3620;49.862;8.758;2022-12-15T00:40:37;98160.84;;;-2.34;100.00
7157;BME280;3620;49.862;8.758;2022-12-15T00:43:04;98153.97;;;-2.33;100.00
7157;BME280;3620;49.862;8.758;2022-12-15T00:45:31;98140.34;;;-2.41;100.00
7157;BME280;3620;49.862;8.758;2022-12-15T00:48:11;98142.81;;;-2.32;100.00
7157;BME280;3620;49.862;8.758;2022-12-15T00:50:40;98160.78;;;-2.29;100.00
7157;BME280;3620;49.862;8.758;2022-12-15T00:53:20;98169.16;;;-2.12;100.00
7157;BME280;3620;49.862;8.758;2022-12-15T00:56:05;98179.34;;;-2.04;100.00
7157;BME280;3620;49.862;8.758;2022-12-15T00:58:49;98182.56;;;-1.89;100.00
7157;BME280;3620;49.862;8.758;2022-12-15T01:01:32;98187.59;;;-1.77;100.00
7157;BME280;3620;49.862;8.758;2022-12-15T01:04:16;98191.41;;;-2.05;100.00
7157;BME280;3620;49.862;8.758;2022-12-15T01:07:02;98193.97;;;-2.05;100.00
7157;BME280;3620;49.862;8.758;2022-12-15T01:09:46;98189.75;;;-2.12;100.00
7157;BME280;3620;49.862;8.758;2022-12-15T01:12:30;98182.22;;;-2.29;100.00
7157;BME280;3620;49.862;8.758;2022-12-15T01:15:14;98190.16;;;-2.45;100.00
7157;BME280;3620;49.862;8.758;2022-12-15T01:17:58;98182.56;;;-2.59;100.00
7157;BME280;3620;49.862;8.758;2022-12-15T01:20:42;98193.84;;;-2.70;100.00
7157;BME280;3620;49.862;8.758;2022-12-15T01:23:10;98205.59;;;-2.45;100.00
7157;BME280;3620;49.862;8.758;2022-12-15T01:25:37;98195.38;;;-2.51;100.00
7157;BME280;3620;49.862;8.758;2022-12-15T01:28:04;98215.13;;;-2.55;100.00
7157;BME280;3620;49.862;8.758;2022-12-15T01:30:31;98216.06;;;-2.60;100.00
7157;BME280;3620;49.862;8.758;2022-12-15T01:32:57;98219.63;;;-2.76;100.00
7157;BME280;3620;49.862;8.758;2022-12-15T01:35:24;98218.84;;;-2.84;100.00
7157;BME280;3620;49.862;8.758;2022-12-15T01:37:51;98219.53;;;-2.66;100.00
7157;BME280;3620;49.862;8.758;2022-12-15T01:40:20;98229.72;;;-2.54;100.00
7157;BME280;3620;49.862;8.758;2022-12-15T01:43:10;98227.09;;;-2.51;100.00
7157;BME280;3620;49.862;8.758;2022-12-15T01:45:47;98228.25;;;-2.83;100.00
7157;BME280;3620;49.862;8.758;2022-12-15T01:48:19;98234.38;;;-2.97;100.00
7157;BME280;3620;49.862;8.758;2022-12-15T01:50:56;98226.59;;;-2.90;100.00
7157;BME280;3620;49.862;8.758;2022-12-15T01:53:24;98223.13;;;-2.83;100.00
7157;BME280;3620;49.862;8.758;2022-12-15T01:55:52;98228.19;;;-2.77;100.00
7157;BME280;3620;49.862;8.758;2022-12-15T01:58:19;98224.66;;;-2.64;100.00
7157;BME280;3620;49.862;8.758;2022-12-15T02:00:47;98237.53;;;-2.66;100.00
7157;BME280;3620;49.862;8.758;2022-12-15T02:03:14;98239.88;;;-2.43;100.00
7157;BME280;3620;49.862;8.758;2022-12-15T02:05:40;98244.13;;;-2.36;100.00
7157;BME280;3620;49.862;8.758;2022-12-15T02:08:08;98239.75;;;-2.30;100.00
7157;BME280;3620;49.862;8.758;2022-12-15T02:10:53;98246.59;;;-2.27;100.00
7157;BME280;3620;49.862;8.758;2022-12-15T02:13:31;98245.03;;;-2.40;100.00
7157;BME280;3620;49.862;8.758;2022-12-15T02:16:07;98255.66;;;-2.79;100.00
7157;BME280;3620;49.862;8.758;2022-12-15T02:18:40;98257.41;;;-2.81;100.00
7157;BME280;3620;49.862;8.758;2022-12-15T02:21:16;98262.63;;;-2.90;100.00
7157;BME280;3620;49.862;8.758;2022-12-15T02:24:16;98269.38;;;-2.77;100.00
7157;BME280;3620;49.862;8.758;2022-12-15T02:27:30;98255.44;;;-2.52;100.00
7157;BME280;3620;49.862;8.758;2022-12-15T02:30:17;98250.34;;;-2.58;100.00
7157;BME280;3620;49.862;8.758;2022-12-15T02:32:52;98252.78;;;-2.45;100.00
7157;BME280;3620;49.862;8.758;2022-12-15T02:35:25;98254.31;;;-2.29;100.00
7157;BME280;3620;49.862;8.758;2022-12-15T02:37:53;98259.47;;;-2.27;100.00
7157;BME280;3620;49.862;8.758;2022-12-15T02:40:20;98261.50;;;-2.59;100.00
7157;BME280;3620;49.862;8.758;2022-12-15T02:42:50;98259.06;;;-2.74;100.00
7157;BME280;3620;49.862;8.758;2022-12-15T02:45:22;98254.56;;;-2.53;100.00
7157;BME280;3620;49.862;8.758;2022-12-15T02:47:59;98265.94;;;-2.73;100.00
7157;BME280;3620;49.862;8.758;2022-12-15T02:50:49;98259.50;;;-3.32;100.00
7157;BME280;3620;49.862;8.758;2022-12-15T02:53:32;98270.75;;;-3.49;100.00
7157;BME280;3620;49.862;8.758;2022-12-15T02:56:09;98264.63;;;-3.33;100.00
7157;BME280;3620;49.862;8.758;2022-12-15T02:58:46;98266.38;;;-3.37;100.00
7157;BME280;3620;49.862;8.758;2022-12-15T03:01:19;98272.41;;;-3.41;100.00
7157;BME280;3620;49.862;8.758;2022-12-15T03:03:47;98268.25;;;-3.64;100.00
7157;BME280;3620;49.862;8.758;2022-12-15T03:06:14;98276.03;;;-3.80;100.00
7157;BME280;3620;49.862;8.758;2022-12-15T03:08:41;98276.00;;;-3.69;100.00
7157;BME280;3620;49.862;8.758;2022-12-15T03:11:07;98280.22;;;-3.62;100.00
7157;BME280;3620;49.862;8.758;2022-12-15T03:13:34;98290.44;;;-3.53;100.00
7157;BME280;3620;49.862;8.758;2022-12-15T03:16:00;98280.13;;;-3.41;100.00
7157;BME280;3620;49.862;8.758;2022-12-15T03:18:28;98287.72;;;-3.26;100.00
7157;BME280;3620;49.862;8.758;2022-12-15T03:20:55;98300.59;;;-3.26;100.00
7157;BME280;3620;49.862;8.758;2022-12-15T03:23:21;98299.88;;;-3.49;100.00
7157;BME280;3620;49.862;8.758;2022-12-15T03:25:48;98299.03;;;-3.57;100.00
7157;BME280;3620;49.862;8.758;2022-12-15T03:28:15;98305.84;;;-3.45;100.00
7157;BME280;3620;49.862;8.758;2022-12-15T03:30:41;98304.03;;;-3.30;100.00
7157;BME280;3620;49.862;8.758;2022-12-15T03:33:08;98311.72;;;-3.25;100.00
7157;BME280;3620;49.862;8.758;2022-12-15T03:35:35;98303.28;;;-3.53;100.00
7157;BME280;3620;49.862;8.758;2022-12-15T03:38:02;98307.63;;;-3.64;100.00
7157;BME280;3620;49.862;8.758;2022-12-15T03:40:28;98315.44;;;-3.87;100.00
7157;BME280;3620;49.862;8.758;2022-12-15T03:42:55;98323.13;;;-3.85;100.00
7157;BME280;3620;49.862;8.758;2022-12-15T03:45:24;98324.84;;;-3.87;100.00
7157;BME280;3620;49.862;8.758;2022-12-15T03:47:52;98331.69;;;-3.80;100.00
7157;BME280;3620;49.862;8.758;2022-12-15T03:50:21;98335.16;;;-3.96;100.00
7157;BME280;3620;49.862;8.758;2022-12-15T03:52:50;98336.88;;;-4.04;100.00
7157;BME280;3620;49.862;8.758;2022-12-15T03:55:17;98331.72;;;-3.94;100.00
7157;BME280;3620;49.862;8.758;2022-12-15T03:57:44;98336.88;;;-4.01;100.00
7157;BME280;3620;49.862;8.758;2022-12-15T04:00:12;98342.00;;;-3.89;100.00
7157;BME280;3620;49.862;8.758;2022-12-15T04:02:39;98347.13;;;-3.89;100.00
7157;BME280;3620;49.862;8.758;2022-12-15T04:05:07;98341.06;;;-3.78;100.00
7157;BME280;3620;49.862;8.758;2022-12-15T04:07:34;98334.19;;;-3.60;100.00
7157;BME280;3620;49.862;8.758;2022-12-15T04:10:02;98335.94;;;-3.75;100.00
7157;BME280;3620;49.862;8.758;2022-12-15T04:12:29;98324.84;;;-3.81;100.00
7157;BME280;3620;49.862;8.758;2022-12-15T04:14:55;98332.56;;;-3.87;100.00
7157;BME280;3620;49.862;8.758;2022-12-15T04:17:22;98335.13;;;-3.90;100.00
7157;BME280;3620;49.862;8.758;2022-12-15T04:19:48;98329.09;;;-3.74;100.00
7157;BME280;3620;49.862;8.758;2022-12-15T04:22:32;98319.63;;;-3.63;100.00
7157;BME280;3620;49.862;8.758;2022-12-15T04:24:59;98333.34;;;-3.70;100.00
7157;BME280;3620;49.862;8.758;2022-12-15T04:27:44;98334.31;;;-3.98;100.00
7157;BME280;3620;49.862;8.758;2022-12-15T04:30:29;98334.28;;;-4.00;100.00
7157;BME280;3620;49.862;8.758;2022-12-15T04:33:13;98339.44;;;-4.06;100.00
7157;BME280;3620;49.862;8.758;2022-12-15T04:35:58;98348.84;;;-3.91;100.00
7157;BME280;3620;49.862;8.758;2022-12-15T04:38:42;98345.44;;;-3.96;100.00
7157;BME280;3620;49.862;8.758;2022-12-15T04:41:27;98346.31;;;-4.09;100.00
7157;BME280;3620;49.862;8.758;2022-12-15T04:44:13;98345.44;;;-4.05;100.00
7157;BME280;3620;49.862;8.758;2022-12-15T04:46:57;98343.75;;;-4.18;100.00
7157;BME280;3620;49.862;8.758;2022-12-15T04:49:41;98346.28;;;-4.03;100.00
7157;BME280;3620;49.862;8.758;2022-12-15T04:52:26;98343.75;;;-4.18;100.00
7157;BME280;3620;49.862;8.758;2022-12-15T04:55:10;98352.34;;;-4.31;100.00
7157;BME280;3620;49.862;8.758;2022-12-15T04:57:54;98353.13;;;-4.01;100.00
7157;BME280;3620;49.862;8.758;2022-12-15T05:00:40;98359.13;;;-4.02;100.00
7157;BME280;3620;49.862;8.758;2022-12-15T05:03:23;98354.03;;;-4.09;100.00
7157;BME280;3620;49.862;8.758;2022-12-15T05:06:07;98355.72;;;-4.17;100.00
7157;BME280;3620;49.862;8.758;2022-12-15T05:08:51;98361.69;;;-4.11;100.00
7157;BME280;3620;49.862;8.758;2022-12-15T05:11:36;98353.19;;;-4.25;100.00
7157;BME280;3620;49.862;8.758;2022-12-15T05:14:20;98351.44;;;-4.20;100.00
7157;BME280;3620;49.862;8.758;2022-12-15T05:17:05;98360.84;;;-4.05;100.00
7157;BME280;3620;49.862;8.758;2022-12-15T05:19:49;98365.09;;;-3.95;100.00
7157;BME280;3620;49.862;8.758;2022-12-15T05:22:33;98368.53;;;-3.96;100.00
7157;BME280;3620;49.862;8.758;2022-12-15T05:25:17;98376.16;;;-3.75;100.00
7157;BME280;3620;49.862;8.758;2022-12-15T05:28:04;98379.59;;;-3.73;100.00
7157;BME280;3620;49.862;8.758;2022-12-15T05:30:48;98378.72;;;-3.63;100.00
7157;BME280;3620;49.862;8.758;2022-12-15T05:33:33;98372.66;;;-3.53;100.00
7157;BME280;3620;49.862;8.758;2022-12-15T05:36:00;98371.06;;;-3.77;100.00
7157;BME280;3620;49.862;8.758;2022-12-15T05:38:27;98358.16;;;-3.58;100.00
7157;BME280;3620;49.862;8.758;2022-12-15T05:40:56;98368.41;;;-3.52;100.00
7157;BME280;3620;49.862;8.758;2022-12-15T05:43:22;98369.28;;;-3.61;100.00
7157;BME280;3620;49.862;8.758;2022-12-15T05:45:49;98359.03;;;-3.73;100.00
7157;BME280;3620;49.862;8.758;2022-12-15T05:48:15;98367.59;;;-3.71;100.00
7157;BME280;3620;49.862;8.758;2022-12-15T05:50:43;98360.75;;;-3.75;100.00
7157;BME280;3620;49.862;8.758;2022-12-15T05:53:10;98355.69;;;-3.87;100.00
7157;BME280;3620;49.862;8.758;2022-12-15T05:55:36;98362.59;;;-4.16;100.00
7157;BME280;3620;49.862;8.758;2022-12-15T05:58:03;98368.59;;;-4.20;100.00
7157;BME280;3620;49.862;8.758;2022-12-15T06:00:29;98385.66;;;-4.09;100.00
7157;BME280;3620;49.862;8.758;2022-12-15T06:02:56;98395.06;;;-3.97;100.00
7157;BME280;3620;49.862;8.758;2022-12-15T06:05:23;98392.56;;;-4.29;100.00
7157;BME280;3620;49.862;8.758;2022-12-15T06:07:51;98405.34;;;-4.70;100.00
7157;BME280;3620;49.862;8.758;2022-12-15T06:10:17;98407.91;;;-4.58;100.00
7157;BME280;3620;49.862;8.758;2022-12-15T06:12:44;98419.03;;;-4.74;100.00
7157;BME280;3620;49.862;8.758;2022-12-15T06:15:11;98413.84;;;-4.89;100.00
7157;BME280;3620;49.862;8.758;2022-12-15T06:17:37;98423.28;;;-4.82;100.00
7157;BME280;3620;49.862;8.758;2022-12-15T06:20:05;98412.16;;;-4.87;100.00
7157;BME280;3620;49.862;8.758;2022-12-15T06:22:31;98419.84;;;-4.85;100.00
7157;BME280;3620;49.862;8.758;2022-12-15T06:24:59;98423.28;;;-4.68;100.00
7157;BME280;3620;49.862;8.758;2022-12-15T06:27:26;98422.44;;;-4.87;100.00
7157;BME280;3620;49.862;8.758;2022-12-15T06:29:52;98425.84;;;-4.85;100.00
7157;BME280;3620;49.862;8.758;2022-12-15T06:32:19;98430.13;;;-4.87;100.00
7157;BME280;3620;49.862;8.758;2022-12-15T06:34:46;98423.28;;;-4.79;100.00
7157;BME280;3620;49.862;8.758;2022-12-15T06:37:13;98425.00;;;-4.70;100.00
7157;BME280;3620;49.862;8.758;2022-12-15T06:39:39;98413.00;;;-4.94;100.00
7157;BME280;3620;49.862;8.758;2022-12-15T06:42:09;98412.19;;;-4.66;100.00
7157;BME280;3620;49.862;8.758;2022-12-15T06:44:36;98410.47;;;-4.58;100.00
7157;BME280;3620;49.862;8.758;2022-12-15T06:47:02;98413.03;;;-4.79;100.00
7157;BME280;3620;49.862;8.758;2022-12-15T06:49:29;98424.13;;;-4.80;100.00
7157;BME280;3620;49.862;8.758;2022-12-15T06:51:56;98421.56;;;-4.81;100.00
7157;BME280;3620;49.862;8.758;2022-12-15T06:54:22;98431.78;;;-5.02;100.00
7157;BME280;3620;49.862;8.758;2022-12-15T06:56:49;98441.03;;;-5.42;100.00
7157;BME280;3620;49.862;8.758;2022-12-15T06:59:17;98432.59;;;-5.20;100.00
7157;BME280;3620;49.862;8.758;2022-12-15T07:01:43;98434.31;;;-5.10;100.00
7157;BME280;3620;49.862;8.758;2022-12-15T07:04:10;98435.84;;;-5.48;100.00
7157;BME280;3620;49.862;8.758;2022-12-15T07:06:37;98447.00;;;-5.43;100.00
7157;BME280;3620;49.862;8.758;2022-12-15T07:09:06;98459.84;;;-5.34;100.00
7157;BME280;3620;49.862;8.758;2022-12-15T07:11:34;98452.91;;;-5.56;100.00
7157;BME280;3620;49.862;8.758;2022-12-15T07:14:01;98458.84;;;-5.63;100.00
7157;BME280;3620;49.862;8.758;2022-12-15T07:16:30;98455.41;;;-5.67;100.00
7157;BME280;3620;49.862;8.758;2022-12-15T07:18:57;98456.34;;;-5.51;100.00
7157;BME280;3620;49.862;8.758;2022-12-15T07:21:23;98456.41;;;-5.36;100.00
7157;BME280;3620;49.862;8.758;2022-12-15T07:23:50;98456.47;;;-5.24;100.00
7157;BME280;3620;49.862;8.758;2022-12-15T07:26:16;98459.91;;;-5.19;100.00
7157;BME280;3620;49.862;8.758;2022-12-15T07:28:43;98467.44;;;-5.51;100.00
7157;BME280;3620;49.862;8.758;2022-12-15T07:31:09;98464.78;;;-5.64;100.00
7157;BME280;3620;49.862;8.758;2022-12-15T07:33:37;98466.44;;;-5.78;100.00
7157;BME280;3620;49.862;8.758;2022-12-15T07:36:05;98471.59;;;-5.69;100.00
7157;BME280;3620;49.862;8.758;2022-12-15T07:38:34;98469.88;;;-5.70;100.00
7157;BME280;3620;49.862;8.758;2022-12-15T07:41:01;98466.63;;;-5.44;100.00
7157;BME280;3620;49.862;8.758;2022-12-15T07:43:28;98464.06;;;-5.44;100.00
7157;BME280;3620;49.862;8.758;2022-12-15T07:45:56;98470.03;;;-5.49;100.00
7157;BME280;3620;49.862;8.758;2022-12-15T07:48:23;98466.63;;;-5.39;100.00
7157;BME280;3620;49.862;8.758;2022-12-15T07:50:51;98475.25;;;-5.25;100.00
7157;BME280;3620;49.862;8.758;2022-12-15T07:53:22;98476.97;;;-5.21;100.00
7157;BME280;3620;49.862;8.758;2022-12-15T07:55:53;98485.50;;;-5.25;100.00
7157;BME280;3620;49.862;8.758;2022-12-15T07:58:19;98485.50;;;-5.25;100.00
7157;BME280;3620;49.862;8.758;2022-12-15T08:00:46;98478.63;;;-5.32;100.00
7157;BME280;3620;49.862;8.758;2022-12-15T08:03:12;98481.31;;;-5.02;100.00
7157;BME280;3620;49.862;8.758;2022-12-15T08:05:39;98489.94;;;-4.89;100.00
7157;BME280;3620;49.862;8.758;2022-12-15T08:08:07;98484.78;;;-4.86;100.00
7157;BME280;3620;49.862;8.758;2022-12-15T08:10:37;98487.41;;;-4.76;100.00
7157;BME280;3620;49.862;8.758;2022-12-15T08:13:04;98476.31;;;-4.67;100.00
7157;BME280;3620;49.862;8.758;2022-12-15T08:15:33;98475.50;;;-4.56;100.00
7157;BME280;3620;49.862;8.758;2022-12-15T08:17:59;98490.06;;;-4.27;100.00
7157;BME280;3620;49.862;8.758;2022-12-15T08:20:26;98490.00;;;-4.53;100.00
7157;BME280;3620;49.862;8.758;2022-12-15T08:22:53;98495.19;;;-4.23;100.00
7157;BME280;3620;49.862;8.758;2022-12-15T08:25:21;98500.34;;;-4.09;100.00
7157;BME280;3620;49.862;8.758;2022-12-15T08:27:49;98496.88;;;-4.26;100.00
7157;BME280;3620;49.862;8.758;2022-12-15T08:30:15;98494.31;;;-4.32;100.00
7157;BME280;3620;49.862;8.758;2022-12-15T08:32:42;98492.59;;;-4.24;100.00
7157;BME280;3620;49.862;8.758;2022-12-15T08:35:10;98492.66;;;-4.09;100.00
7157;BME280;3620;49.862;8.758;2022-12-15T08:37:36;98485.78;;;-3.86;100.00
7157;BME280;3620;49.862;8.758;2022-12-15T08:40:04;98481.50;;;-3.90;100.00
7157;BME280;3620;49.862;8.758;2022-12-15T08:42:33;98478.09;;;-3.80;100.00
7157;BME280;3620;49.862;8.758;2022-12-15T08:45:00;98488.34;;;-3.60;100.00
7157;BME280;3620;49.862;8.758;2022-12-15T08:47:27;98497.75;;;-3.79;100.00
7157;BME280;3620;49.862;8.758;2022-12-15T08:49:56;98497.75;;;-3.70;100.00
7157;BME280;3620;49.862;8.758;2022-12-15T08:52:23;98508.03;;;-3.52;100.00
7157;BME280;3620;49.862;8.758;2022-12-15T08:54:49;98508.88;;;-3.53;100.00
7157;BME280;3620;49.862;8.758;2022-12-15T08:57:16;98513.19;;;-3.67;100.00
7157;BME280;3620;49.862;8.758;2022-12-15T08:59:44;98525.16;;;-3.63;100.00
7157;BME280;3620;49.862;8.758;2022-12-15T09:02:11;98531.16;;;-3.65;100.00
7157;BME280;3620;49.862;8.758;2022-12-15T09:04:38;98543.97;;;-3.34;100.00
7157;BME280;3620;49.862;8.758;2022-12-15T09:07:05;98542.28;;;-3.59;100.00
7157;BME280;3620;49.862;8.758;2022-12-15T09:09:31;98528.59;;;-3.49;100.00
7157;BME280;3620;49.862;8.758;2022-12-15T09:11:58;98525.13;;;-3.48;100.00
7157;BME280;3620;49.862;8.758;2022-12-15T09:14:25;98528.53;;;-3.35;100.00
7157;BME280;3620;49.862;8.758;2022-12-15T09:16:53;98534.53;;;-3.33;100.00
7157;BME280;3620;49.862;8.758;2022-12-15T09:19:19;98537.06;;;-3.17;100.00
7157;BME280;3620;49.862;8.758;2022-12-15T09:21:46;98551.63;;;-3.10;100.00
7157;BME280;3620;49.862;8.758;2022-12-15T09:24:13;98558.47;;;-3.13;100.00
7157;BME280;3620;49.862;8.758;2022-12-15T09:26:40;98558.50;;;-3.15;100.00
7157;BME280;3620;49.862;8.758;2022-12-15T09:29:10;98553.34;;;-3.07;100.00
7157;BME280;3620;49.862;8.758;2022-12-15T09:31:38;98562.75;;;-2.99;100.00
7157;BME280;3620;49.862;8.758;2022-12-15T09:34:06;98569.59;;;-2.91;100.00
7157;BME280;3620;49.862;8.758;2022-12-15T09:36:32;98561.94;;;-3.26;100.00
7157;BME280;3620;49.862;8.758;2022-12-15T09:38:59;98560.22;;;-3.33;100.00
7157;BME280;3620;49.862;8.758;2022-12-15T09:41:28;98556.84;;;-3.47;100.00
7157;BME280;3620;49.862;8.758;2022-12-15T09:43:58;98556.84;;;-3.62;100.00
7157;BME280;3620;49.862;8.758;2022-12-15T09:46:36;98564.53;;;-3.34;100.00
7157;BME280;3620;49.862;8.758;2022-12-15T09:49:13;98564.53;;;-3.34;100.00
7157;BME280;3620;49.862;8.758;2022-12-15T09:51:50;98558.56;;;-3.49;100.00
7157;BME280;3620;49.862;8.758;2022-12-15T09:54:21;98571.41;;;-3.36;100.00
7157;BME280;3620;49.862;8.758;2022-12-15T09:56:53;98567.09;;;-3.25;100.00
7157;BME280;3620;49.862;8.758;2022-12-15T09:59:28;98572.25;;;-3.32;100.00
7157;BME280;3620;49.862;8.758;2022-12-15T10:02:12;98578.22;;;-3.35;100.00
7157;BME280;3620;49.862;8.758;2022-12-15T10:04:48;98581.66;;;-3.24;100.00
7157;BME280;3620;49.862;8.758;2022-12-15T10:07:26;98588.53;;;-3.32;100.00
7157;BME280;3620;49.862;8.758;2022-12-15T10:09:54;98594.53;;;-3.31;100.00
7157;BME280;3620;49.862;8.758;2022-12-15T10:12:24;98590.22;;;-3.28;100.00
7157;BME280;3620;49.862;8.758;2022-12-15T10:15:02;98587.63;;;-3.22;100.00
7157;BME280;3620;49.862;8.758;2022-12-15T10:17:40;98566.16;;;-3.00;100.00
7157;BME280;3620;49.862;8.758;2022-12-15T10:20:16;98566.09;;;-2.77;100.00
7157;BME280;3620;49.862;8.758;2022-12-15T10:22:44;98558.31;;;-2.60;100.00
7157;BME280;3620;49.862;8.758;2022-12-15T10:25:15;98558.38;;;-2.75;100.00
7157;BME280;3620;49.862;8.758;2022-12-15T10:28:05;98552.31;;;-2.56;100.00
7157;BME280;3620;49.862;8.758;2022-12-15T10:30:34;98553.09;;;-2.41;100.00
7157;BME280;3620;49.862;8.758;2022-12-15T10:33:02;98543.69;;;-2.55;100.00
7157;BME280;3620;49.862;8.758;2022-12-15T10:35:35;98538.56;;;-2.55;100.00
7157;BME280;3620;49.862;8.758;2022-12-15T10:38:07;98535.00;;;-2.30;100.00
7157;BME280;3620;49.862;8.758;2022-12-15T10:40:45;98536.53;;;-2.02;100.00
7157;BME280;3620;49.862;8.758;2022-12-15T10:43:13;98540.09;;;-2.21;100.00
7157;BME280;3620;49.862;8.758;2022-12-15T10:45:43;98545.34;;;-2.39;100.00
7157;BME280;3620;49.862;8.758;2022-12-15T10:48:18;98534.97;;;-2.27;100.00
7157;BME280;3620;49.862;8.758;2022-12-15T10:50:46;98529.78;;;-2.24;100.00
7157;BME280;3620;49.862;8.758;2022-12-15T10:53:32;98528.19;;;-2.40;100.00
7157;BME280;3620;49.862;8.758;2022-12-15T10:56:00;98530.81;;;-2.48;100.00
7157;BME280;3620;49.862;8.758;2022-12-15T10:58:26;98530.88;;;-2.61;100.00
7157;BME280;3620;49.862;8.758;2022-12-15T11:01:04;98531.63;;;-2.44;100.00
7157;BME280;3620;49.862;8.758;2022-12-15T11:03:35;98533.25;;;-2.28;100.00
7157;BME280;3620;49.862;8.758;2022-12-15T11:06:09;98534.19;;;-2.38;100.00
7157;BME280;3620;49.862;8.758;2022-12-15T11:08:42;98531.56;;;-2.29;100.00
7157;BME280;3620;49.862;8.758;2022-12-15T11:11:25;98533.28;;;-2.30;100.00
7157;BME280;3620;49.862;8.758;2022-12-15T11:14:12;98531.53;;;-2.23;100.00
7157;BME280;3620;49.862;8.758;2022-12-15T11:16:48;98529.88;;;-2.36;100.00
7157;BME280;3620;49.862;8.758;2022-12-15T11:19:27;98526.47;;;-2.44;100.00
7157;BME280;3620;49.862;8.758;2022-12-15T11:22:00;98529.06;;;-2.46;100.00
7157;BME280;3620;49.862;8.758;2022-12-15T11:24:34;98529.88;;;-2.36;100.00
7157;BME280;3620;49.862;8.758;2022-12-15T11:27:11;98520.22;;;-2.04;100.00
7157;BME280;3620;49.862;8.758;2022-12-15T11:29:47;98509.13;;;-2.09;100.00
7157;BME280;3620;49.862;8.758;2022-12-15T11:32:17;98498.72;;;-2.00;100.00
7157;BME280;3620;49.862;8.758;2022-12-15T11:34:47;98500.25;;;-1.75;100.00
7157;BME280;3620;49.862;8.758;2022-12-15T11:37:42;98500.09;;;-1.60;100.00
7157;BME280;3620;49.862;8.758;2022-12-15T11:43:15;98489.94;;;-1.78;100.00
7157;BME280;3620;49.862;8.758;2022-12-15T11:45:58;98494.00;;;-1.50;100.00
7157;BME280;3620;49.862;8.758;2022-12-15T11:48:34;98479.53;;;-1.63;100.00
7157;BME280;3620;49.862;8.758;2022-12-15T11:51:05;98479.53;;;-1.63;100.00
7157;BME280;3620;49.862;8.758;2022-12-15T11:54:04;98481.97;;;-1.51;100.00
7157;BME280;3620;49.862;8.758;2022-12-15T11:56:38;98481.19;;;-1.59;100.00
7157;BME280;3620;49.862;8.758;2022-12-15T11:59:23;98484.59;;;-1.55;100.00
7157;BME280;3620;49.862;8.758;2022-12-15T12:02:07;98468.88;;;-1.32;100.00
7157;BME280;3620;49.862;8.758;2022-12-15T12:04:42;98456.50;;;-1.00;100.00
7157;BME280;3620;49.862;8.758;2022-12-15T12:07:23;98455.59;;;-0.96;100.00
7157;BME280;3620;49.862;8.758;2022-12-15T12:10:02;98451.84;;;-0.76;100.00
7157;BME280;3620;49.862;8.758;2022-12-15T12:12:36;98442.69;;;-0.99;100.00
7157;BME280;3620;49.862;8.758;2022-12-15T12:15:19;98451.66;;;-1.30;100.00
7157;BME280;3620;49.862;8.758;2022-12-15T12:17:50;98443.19;;;-1.41;100.00
7157;BME280;3620;49.862;8.758;2022-12-15T12:20:20;98457.88;;;-1.48;100.00
7157;BME280;3620;49.862;8.758;2022-12-15T12:22:54;98457.25;;;-1.73;100.00
7157;BME280;3620;49.862;8.758;2022-12-15T12:25:30;98460.56;;;-1.59;100.00
7157;BME280;3620;49.862;8.758;2022-12-15T12:28:01;98454.50;;;-1.55;100.00
7157;BME280;3620;49.862;8.758;2022-12-15T12:30:36;98449.34;;;-1.53;100.00
7157;BME280;3620;49.862;8.758;2022-12-15T12:33:10;98445.88;;;-1.51;100.00
7157;BME280;3620;49.862;8.758;2022-12-15T12:35:44;98442.66;;;-1.69;100.00
7157;BME280;3620;49.862;8.758;2022-12-15T12:38:12;98429.75;;;-1.71;100.00
7157;BME280;3620;49.862;8.758;2022-12-15T12:40:55;98412.31;;;-1.44;100.00
7157;BME280;3620;49.862;8.758;2022-12-15T12:43:30;98408.00;;;-1.45;100.00
7157;BME280;3620;49.862;8.758;2022-12-15T12:46:02;98402.81;;;-1.44;100.00
7157;BME280;3620;49.862;8.758;2022-12-15T12:48:32;98402.28;;;-1.73;100.00
7157;BME280;3620;49.862;8.758;2022-12-15T12:51:11;98402.22;;;-1.66;100.00
7157;BME280;3620;49.862;8.758;2022-12-15T12:53:38;98400.41;;;-1.59;100.00
7157;BME280;3620;49.862;8.758;2022-12-15T12:56:27;98407.19;;;-1.48;100.00
7157;BME280;3620;49.862;8.758;2022-12-15T12:58:55;98405.63;;;-1.64;100.00
7157;BME280;3620;49.862;8.758;2022-12-15T13:01:25;98407.44;;;-1.73;100.00
7157;BME280;3620;49.862;8.758;2022-12-15T13:04:06;98410.94;;;-1.79;100.00
7157;BME280;3620;49.862;8.758;2022-12-15T13:06:55;98404.06;;;-1.80;100.00
7157;BME280;3620;49.862;8.758;2022-12-15T13:09:24;98411.03;;;-1.88;100.00
7157;BME280;3620;49.862;8.758;2022-12-15T13:12:03;98402.31;;;-1.78;100.00
7157;BME280;3620;49.862;8.758;2022-12-15T13:14:40;98402.44;;;-1.87;100.00
7157;BME280;3620;49.862;8.758;2022-12-15T13:17:13;98390.53;;;-2.00;100.00
7157;BME280;3620;49.862;8.758;2022-12-15T13:22:44;98367.84;;;-1.65;100.00
7157;BME280;3620;49.862;8.758;2022-12-15T13:25:36;98357.47;;;-1.62;100.00
7157;BME280;3620;49.862;8.758;2022-12-15T13:28:26;98353.97;;;-1.55;100.00
7157;BME280;3620;49.862;8.758;2022-12-15T13:31:24;98368.72;;;-1.66;100.00
7157;BME280;3620;49.862;8.758;2022-12-15T13:34:03;98360.34;;;-1.86;100.00
7157;BME280;3620;49.862;8.758;2022-12-15T13:36:46;98355.22;;;-1.90;100.00
7157;BME280;3620;49.862;8.758;2022-12-15T13:42:32;98345.47;;;-1.63;100.00
7157;BME280;3620;49.862;8.758;2022-12-15T13:45:40;98338.81;;;-1.82;100.00
7157;BME280;3620;49.862;8.758;2022-12-15T13:48:17;98344.34;;;-2.19;100.00
7157;BME280;3620;49.862;8.758;2022-12-15T13:50:50;98346.94;;;-2.21;100.00
7157;BME280;3620;49.862;8.758;2022-12-15T13:53:21;98359.81;;;-2.21;100.00